createdAt,value
2023-08-26T00:00:52.774Z,17.70
2023-08-26T00:01:52.719Z,17.66
2023-08-26T00:02:52.745Z,17.63
2023-08-26T00:03:52.726Z,17.66
2023-08-26T00:04:52.673Z,17.53
2023-08-26T00:05:52.658Z,17.60
2023-08-26T00:06:52.644Z,17.63
2023-08-26T00:07:52.648Z,17.62
2023-08-26T00:08:52.624Z,17.51
2023-08-26T00:09:52.639Z,17.49
2023-08-26T00:10:52.605Z,17.51
2023-08-26T00:11:52.591Z,17.28
2023-08-26T00:12:52.636Z,17.10
2023-08-26T00:13:52.571Z,17.17
2023-08-26T00:14:52.591Z,17.10
2023-08-26T00:15:52.586Z,17.05
2023-08-26T00:16:52.558Z,17.05
2023-08-26T00:17:52.561Z,17.17
2023-08-26T00:18:52.519Z,17.02
2023-08-26T00:19:52.506Z,16.85
2023-08-26T00:20:52.497Z,16.87
2023-08-26T00:21:52.481Z,16.88
2023-08-26T00:22:52.505Z,16.82
2023-08-26T00:23:52.462Z,16.77
2023-08-26T00:24:52.465Z,16.63
2023-08-26T00:25:52.473Z,16.66
2023-08-26T00:26:52.442Z,16.69
2023-08-26T00:27:52.456Z,16.63
2023-08-26T00:28:52.424Z,16.72
2023-08-26T00:29:52.389Z,16.65
2023-08-26T00:30:52.379Z,16.66
2023-08-26T00:31:52.371Z,16.60
2023-08-26T00:32:52.460Z,16.63
2023-08-26T00:33:52.350Z,16.63
2023-08-26T00:34:52.352Z,16.54
2023-08-26T00:35:52.326Z,16.60
2023-08-26T00:36:52.314Z,16.54
2023-08-26T00:37:52.305Z,16.57
2023-08-26T00:38:52.299Z,16.52
2023-08-26T00:39:52.285Z,16.48
2023-08-26T00:40:52.284Z,16.30
2023-08-26T00:41:52.287Z,16.16
2023-08-26T00:42:52.260Z,16.36
2023-08-26T00:43:52.257Z,16.25
2023-08-26T00:44:52.260Z,16.18
2023-08-26T00:45:52.218Z,16.14
2023-08-26T00:46:52.229Z,16.16
2023-08-26T00:47:52.254Z,16.26
2023-08-26T00:48:52.198Z,16.25
2023-08-26T00:49:52.202Z,16.14
2023-08-26T00:50:52.210Z,16.18
2023-08-26T00:51:52.154Z,16.29
2023-08-26T00:52:52.158Z,16.37
2023-08-26T00:53:52.150Z,16.30
2023-08-26T00:54:52.117Z,16.34
2023-08-26T00:55:52.118Z,16.44
2023-08-26T00:56:52.097Z,16.41
2023-08-26T00:57:52.108Z,16.44
2023-08-26T00:58:52.095Z,16.44
2023-08-26T00:59:52.072Z,16.59
2023-08-26T01:00:52.084Z,16.42
2023-08-26T01:01:52.057Z,16.60
2023-08-26T01:02:52.104Z,16.60
2023-08-26T01:03:52.105Z,16.63
2023-08-26T01:04:52.022Z,16.47
2023-08-26T01:05:52.024Z,16.36
2023-08-26T01:06:51.987Z,16.41
2023-08-26T01:07:51.997Z,16.59
2023-08-26T01:08:51.970Z,16.36
2023-08-26T01:09:51.947Z,16.45
2023-08-26T01:10:51.977Z,16.29
2023-08-26T01:11:51.944Z,16.27
2023-08-26T01:12:51.921Z,16.33
2023-08-26T01:13:51.930Z,16.25
2023-08-26T01:14:51.898Z,16.27
2023-08-26T01:15:51.915Z,16.23
2023-08-26T01:16:51.959Z,16.27
2023-08-26T01:17:51.929Z,16.34
2023-08-26T01:18:51.847Z,16.26
2023-08-26T01:19:51.836Z,16.33
2023-08-26T01:20:51.843Z,16.26
2023-08-26T01:21:51.819Z,16.30
2023-08-26T01:22:51.799Z,16.22
2023-08-26T01:23:51.803Z,16.18
2023-08-26T01:24:51.792Z,16.27
2023-08-26T01:25:51.784Z,16.23
2023-08-26T01:26:51.787Z,16.22
2023-08-26T01:27:51.745Z,15.98
2023-08-26T01:28:51.741Z,15.73
2023-08-26T01:29:51.768Z,15.77
2023-08-26T01:30:51.769Z,15.59
2023-08-26T01:31:51.730Z,15.52
2023-08-26T01:32:51.720Z,15.60
2023-08-26T01:33:51.697Z,15.73
2023-08-26T01:34:51.672Z,15.58
2023-08-26T01:35:51.658Z,15.55
2023-08-26T01:36:51.667Z,15.53
2023-08-26T01:37:52.747Z,15.38
2023-08-26T01:38:51.635Z,15.40
2023-08-26T01:39:51.614Z,15.23
2023-08-26T01:40:51.626Z,15.04
2023-08-26T01:41:51.691Z,14.91
2023-08-26T01:42:51.610Z,14.97
2023-08-26T01:43:51.612Z,14.93
2023-08-26T01:44:51.576Z,14.97
2023-08-26T01:45:51.583Z,15.01
2023-08-26T01:46:51.564Z,15.03
2023-08-26T01:47:51.628Z,15.04
2023-08-26T01:48:51.524Z,15.01
2023-08-26T01:49:51.512Z,15.05
2023-08-26T01:50:51.499Z,15.07
2023-08-26T01:51:51.506Z,15.03
2023-08-26T01:52:51.480Z,15.04
2023-08-26T01:53:51.465Z,14.98
2023-08-26T01:54:51.457Z,15.01
2023-08-26T01:55:51.478Z,14.87
2023-08-26T01:56:51.432Z,14.83
2023-08-26T01:57:51.441Z,14.87
2023-08-26T01:58:51.408Z,14.78
2023-08-26T01:59:51.401Z,14.86
2023-08-26T02:00:51.392Z,14.66
2023-08-26T02:01:51.473Z,14.67
2023-08-26T02:02:51.441Z,14.61
2023-08-26T02:03:51.444Z,14.64
2023-08-26T02:04:51.349Z,14.56
2023-08-26T02:05:51.331Z,14.52
2023-08-26T02:06:51.320Z,14.49
2023-08-26T02:07:51.339Z,14.56
2023-08-26T02:08:51.311Z,14.49
2023-08-26T02:09:51.282Z,14.66
2023-08-26T02:10:51.330Z,14.71
2023-08-26T02:11:51.265Z,14.72
2023-08-26T02:12:51.268Z,14.66
2023-08-26T02:13:51.262Z,14.63
2023-08-26T02:14:51.257Z,14.64
2023-08-26T02:15:51.267Z,14.60
2023-08-26T02:16:51.222Z,14.59
2023-08-26T02:17:51.266Z,14.64
2023-08-26T02:18:51.190Z,14.63
2023-08-26T02:19:51.212Z,14.72
2023-08-26T02:20:51.174Z,14.78
2023-08-26T02:21:51.159Z,14.72
2023-08-26T02:22:51.158Z,14.78
2023-08-26T02:23:51.138Z,14.82
2023-08-26T02:24:51.144Z,14.91
2023-08-26T02:25:51.107Z,14.83
2023-08-26T02:26:51.123Z,14.90
2023-08-26T02:27:51.088Z,14.86
2023-08-26T02:28:51.084Z,14.94
2023-08-26T02:29:51.096Z,14.85
2023-08-26T02:30:51.082Z,14.72
2023-08-26T02:31:51.104Z,14.63
2023-08-26T02:32:51.113Z,14.53
2023-08-26T02:33:51.048Z,14.49
2023-08-26T02:34:51.031Z,14.45
2023-08-26T02:35:51.010Z,14.53
2023-08-26T02:36:51.009Z,14.60
2023-08-26T02:37:50.982Z,14.46
2023-08-26T02:38:50.991Z,14.39
2023-08-26T02:39:50.953Z,14.27
2023-08-26T02:40:50.945Z,14.34
2023-08-26T02:41:50.961Z,14.30
2023-08-26T02:42:50.923Z,14.20
2023-08-26T02:43:50.906Z,14.11
2023-08-26T02:44:50.898Z,14.19
2023-08-26T02:45:50.919Z,14.29
2023-08-26T02:46:50.877Z,14.16
2023-08-26T02:47:50.949Z,14.21
2023-08-26T02:48:50.860Z,14.27
2023-08-26T02:49:50.872Z,14.08
2023-08-26T02:50:50.841Z,14.12
2023-08-26T02:51:50.818Z,14.13
2023-08-26T02:52:50.828Z,14.21
2023-08-26T02:53:50.799Z,14.12
2023-08-26T02:54:50.788Z,14.12
2023-08-26T02:55:50.776Z,14.19
2023-08-26T02:56:50.766Z,14.29
2023-08-26T02:57:50.755Z,14.11
2023-08-26T02:58:50.758Z,14.13
2023-08-26T02:59:50.733Z,14.09
2023-08-26T03:00:50.720Z,14.12
2023-08-26T03:01:50.715Z,13.98
2023-08-26T03:02:52.574Z,14.09
2023-08-26T03:03:50.754Z,14.01
2023-08-26T03:04:50.692Z,14.01
2023-08-26T03:05:50.692Z,13.96
2023-08-26T03:06:50.683Z,14.09
2023-08-26T03:07:50.643Z,14.01
2023-08-26T03:08:50.646Z,14.11
2023-08-26T03:09:50.641Z,13.91
2023-08-26T03:10:50.611Z,13.93
2023-08-26T03:11:50.604Z,13.87
2023-08-26T03:12:50.602Z,13.79
2023-08-26T03:13:50.579Z,13.75
2023-08-26T03:14:50.571Z,13.81
2023-08-26T03:15:50.633Z,13.72
2023-08-26T03:16:50.553Z,13.75
2023-08-26T03:17:50.657Z,13.76
2023-08-26T03:18:50.527Z,13.72
2023-08-26T03:19:50.506Z,13.72
2023-08-26T03:20:50.530Z,13.65
2023-08-26T03:21:50.564Z,13.65
2023-08-26T03:22:50.502Z,13.63
2023-08-26T03:23:50.477Z,13.63
2023-08-26T03:24:50.466Z,13.62
2023-08-26T03:25:50.472Z,13.62
2023-08-26T03:26:50.440Z,13.69
2023-08-26T03:27:50.432Z,13.68
2023-08-26T03:28:50.443Z,13.68
2023-08-26T03:29:50.403Z,13.76
2023-08-26T03:30:50.393Z,13.79
2023-08-26T03:31:50.386Z,13.66
2023-08-26T03:32:50.426Z,13.66
2023-08-26T03:33:50.386Z,13.61
2023-08-26T03:34:50.348Z,13.54
2023-08-26T03:35:50.335Z,13.65
2023-08-26T03:36:50.341Z,13.73
2023-08-26T03:37:50.338Z,13.75
2023-08-26T03:38:50.310Z,13.71
2023-08-26T03:39:50.313Z,13.62
2023-08-26T03:40:50.276Z,13.63
2023-08-26T03:41:50.273Z,13.65
2023-08-26T03:42:50.262Z,13.73
2023-08-26T03:43:50.263Z,13.65
2023-08-26T03:44:50.234Z,13.68
2023-08-26T03:45:50.269Z,13.63
2023-08-26T03:46:50.231Z,13.57
2023-08-26T03:47:50.219Z,13.61
2023-08-26T03:48:50.204Z,13.54
2023-08-26T03:49:50.207Z,13.66
2023-08-26T03:50:50.182Z,13.62
2023-08-26T03:51:50.163Z,13.72
2023-08-26T03:52:50.151Z,13.63
2023-08-26T03:53:50.170Z,13.69
2023-08-26T03:54:51.122Z,13.73
2023-08-26T03:55:50.133Z,13.61
2023-08-26T03:56:50.101Z,13.63
2023-08-26T03:57:50.092Z,13.57
2023-08-26T03:58:50.097Z,13.66
2023-08-26T03:59:50.096Z,13.57
2023-08-26T04:00:50.124Z,13.65
2023-08-26T04:01:50.066Z,13.76
2023-08-26T04:02:50.071Z,13.63
2023-08-26T04:03:50.093Z,13.80
2023-08-26T04:04:50.020Z,13.81
2023-08-26T04:05:50.017Z,13.71
2023-08-26T04:06:50.015Z,13.73
2023-08-26T04:07:50.002Z,13.69
2023-08-26T04:08:49.986Z,13.63
2023-08-26T04:09:49.995Z,13.68
2023-08-26T04:10:49.959Z,13.69
2023-08-26T04:11:49.935Z,13.68
2023-08-26T04:12:49.925Z,13.71
2023-08-26T04:13:49.937Z,13.72
2023-08-26T04:14:49.910Z,13.69
2023-08-26T04:15:49.959Z,13.68
2023-08-26T04:16:49.888Z,13.76
2023-08-26T04:17:49.943Z,13.71
2023-08-26T04:18:49.877Z,13.65
2023-08-26T04:19:49.850Z,13.71
2023-08-26T04:20:49.841Z,13.68
2023-08-26T04:21:49.828Z,13.66
2023-08-26T04:22:49.831Z,13.73
2023-08-26T04:23:49.808Z,13.69
2023-08-26T04:24:49.806Z,13.81
2023-08-26T04:25:49.807Z,13.73
2023-08-26T04:26:49.784Z,13.72
2023-08-26T04:27:49.768Z,13.81
2023-08-26T04:28:49.758Z,13.84
2023-08-26T04:29:49.739Z,13.83
2023-08-26T04:30:49.762Z,13.87
2023-08-26T04:31:49.767Z,13.80
2023-08-26T04:32:49.731Z,13.86
2023-08-26T04:33:49.710Z,13.84
2023-08-26T04:34:49.688Z,13.87
2023-08-26T04:35:49.671Z,13.76
2023-08-26T04:36:49.663Z,13.86
2023-08-26T04:37:49.685Z,13.81
2023-08-26T04:38:49.637Z,13.71
2023-08-26T04:39:49.643Z,13.88
2023-08-26T04:40:49.616Z,13.75
2023-08-26T04:41:49.629Z,13.84
2023-08-26T04:42:49.592Z,13.86
2023-08-26T04:43:49.601Z,13.80
2023-08-26T04:44:49.575Z,13.75
2023-08-26T04:45:49.600Z,13.66
2023-08-26T04:46:49.628Z,13.72
2023-08-26T04:47:49.601Z,13.66
2023-08-26T04:48:49.527Z,13.72
2023-08-26T04:49:49.517Z,13.72
2023-08-26T04:50:49.541Z,13.72
2023-08-26T04:51:49.511Z,13.63
2023-08-26T04:52:49.488Z,13.69
2023-08-26T04:53:49.467Z,13.83
2023-08-26T04:54:49.484Z,13.68
2023-08-26T04:55:49.461Z,13.75
2023-08-26T04:56:49.454Z,13.99
2023-08-26T04:57:49.461Z,13.79
2023-08-26T04:58:49.435Z,13.73
2023-08-26T04:59:49.418Z,13.73
2023-08-26T05:00:49.419Z,13.75
2023-08-26T05:01:49.381Z,13.81
2023-08-26T05:02:49.477Z,13.83
2023-08-26T05:03:49.562Z,13.75
2023-08-26T05:04:49.366Z,13.72
2023-08-26T05:05:49.341Z,13.72
2023-08-26T05:06:49.328Z,13.71
2023-08-26T05:07:49.310Z,13.63
2023-08-26T05:08:49.310Z,13.68
2023-08-26T05:09:49.294Z,13.75
2023-08-26T05:10:49.284Z,13.75
2023-08-26T05:11:49.322Z,13.80
2023-08-26T05:12:49.253Z,13.84
2023-08-26T05:13:49.279Z,13.84
2023-08-26T05:14:49.232Z,13.75
2023-08-26T05:15:49.230Z,13.81
2023-08-26T05:16:49.265Z,13.75
2023-08-26T05:17:49.235Z,13.69
2023-08-26T05:18:51.695Z,13.79
2023-08-26T05:19:49.205Z,13.73
2023-08-26T05:20:49.184Z,13.72
2023-08-26T05:21:49.170Z,13.81
2023-08-26T05:22:49.157Z,13.75
2023-08-26T05:23:49.158Z,13.84
2023-08-26T05:24:49.135Z,13.83
2023-08-26T05:25:49.122Z,13.72
2023-08-26T05:26:49.107Z,13.76
2023-08-26T05:27:49.119Z,13.88
2023-08-26T05:28:49.085Z,13.96
2023-08-26T05:29:49.098Z,13.96
2023-08-26T05:30:49.095Z,13.96
2023-08-26T05:31:49.052Z,13.88
2023-08-26T05:32:49.103Z,13.99
2023-08-26T05:33:49.029Z,13.91
2023-08-26T05:34:49.019Z,13.91
2023-08-26T05:35:49.021Z,13.98
2023-08-26T05:36:48.992Z,13.91
2023-08-26T05:37:48.987Z,13.99
2023-08-26T05:38:48.977Z,13.94
2023-08-26T05:39:48.964Z,13.94
2023-08-26T05:40:48.949Z,13.94
2023-08-26T05:41:48.950Z,14.01
2023-08-26T05:42:48.946Z,14.02
2023-08-26T05:43:48.927Z,14.08
2023-08-26T05:44:48.927Z,14.04
2023-08-26T05:45:49.020Z,14.06
2023-08-26T05:46:48.899Z,14.11
2023-08-26T05:47:48.924Z,14.08
2023-08-26T05:48:48.864Z,14.05
2023-08-26T05:49:48.853Z,14.11
2023-08-26T05:50:48.841Z,14.26
2023-08-26T05:51:48.829Z,14.19
2023-08-26T05:52:48.834Z,14.06
2023-08-26T05:53:48.823Z,14.12
2023-08-26T05:54:48.811Z,14.12
2023-08-26T05:55:48.789Z,14.17
2023-08-26T05:56:48.789Z,14.16
2023-08-26T05:57:48.825Z,14.16
2023-08-26T05:58:48.749Z,14.09
2023-08-26T05:59:48.764Z,14.05
2023-08-26T06:00:48.728Z,14.16
2023-08-26T06:01:48.777Z,14.17
2023-08-26T06:02:48.756Z,14.59
2023-08-26T06:03:48.729Z,14.48
2023-08-26T06:04:48.683Z,14.56
2023-08-26T06:05:48.699Z,14.60
2023-08-26T06:06:48.661Z,14.66
2023-08-26T06:07:48.652Z,15.16
2023-08-26T06:08:48.647Z,15.71
2023-08-26T06:09:48.629Z,16.13
2023-08-26T06:10:48.618Z,16.55
2023-08-26T06:11:48.623Z,16.54
2023-08-26T06:12:48.612Z,16.59
2023-08-26T06:13:48.583Z,16.70
2023-08-26T06:14:48.573Z,16.92
2023-08-26T06:15:48.564Z,17.18
2023-08-26T06:16:48.571Z,17.49
2023-08-26T06:17:48.599Z,17.74
2023-08-26T06:18:48.528Z,17.83
2023-08-26T06:19:48.521Z,17.92
2023-08-26T06:20:48.532Z,17.92
2023-08-26T06:21:48.508Z,17.36
2023-08-26T06:22:48.491Z,16.90
2023-08-26T06:23:48.499Z,16.65
2023-08-26T06:24:48.463Z,16.34
2023-08-26T06:25:48.453Z,16.11
2023-08-26T06:26:48.446Z,15.77
2023-08-26T06:27:48.437Z,15.62
2023-08-26T06:28:48.417Z,15.49
2023-08-26T06:29:48.425Z,15.76
2023-08-26T06:30:48.395Z,15.78
2023-08-26T06:31:48.423Z,15.76
2023-08-26T06:32:48.457Z,15.43
2023-08-26T06:33:48.410Z,15.53
2023-08-26T06:34:48.351Z,15.48
2023-08-26T06:35:48.356Z,15.44
2023-08-26T06:36:48.336Z,15.43
2023-08-26T06:37:48.322Z,15.35
2023-08-26T06:38:48.314Z,15.31
2023-08-26T06:39:48.311Z,15.22
2023-08-26T06:40:48.301Z,15.03
2023-08-26T06:41:48.278Z,14.98
2023-08-26T06:42:48.264Z,14.97
2023-08-26T06:43:48.256Z,15.11
2023-08-26T06:44:48.261Z,15.18
2023-08-26T06:45:48.282Z,15.60
2023-08-26T06:46:48.221Z,15.58
2023-08-26T06:47:48.253Z,15.64
2023-08-26T06:48:48.200Z,15.85
2023-08-26T06:49:48.239Z,16.01
2023-08-26T06:50:48.184Z,16.30
2023-08-26T06:51:48.169Z,16.66
2023-08-26T06:52:48.173Z,16.48
2023-08-26T06:53:48.169Z,16.59
2023-08-26T06:54:48.160Z,16.95
2023-08-26T06:55:48.123Z,17.06
2023-08-26T06:56:48.109Z,17.15
2023-08-26T06:57:48.097Z,17.07
2023-08-26T06:58:48.088Z,17.32
2023-08-26T06:59:48.091Z,17.47
2023-08-26T07:00:48.061Z,17.65
2023-08-26T07:01:48.126Z,17.32
2023-08-26T07:02:48.152Z,17.00
2023-08-26T07:03:48.133Z,16.91
2023-08-26T07:04:48.051Z,17.40
2023-08-26T07:05:48.109Z,17.30
2023-08-26T07:06:48.001Z,17.33
2023-08-26T07:07:48.004Z,17.62
2023-08-26T07:08:47.985Z,17.68
2023-08-26T07:09:47.986Z,17.84
2023-08-26T07:10:47.958Z,17.25
2023-08-26T07:11:47.951Z,17.10
2023-08-26T07:12:47.937Z,16.72
2023-08-26T07:13:47.927Z,16.50
2023-08-26T07:14:47.913Z,16.65
2023-08-26T07:15:47.947Z,16.98
2023-08-26T07:16:47.893Z,16.70
2023-08-26T07:17:47.904Z,16.62
2023-08-26T07:18:47.893Z,16.60
2023-08-26T07:19:47.854Z,17.00
2023-08-26T07:20:47.854Z,17.05
2023-08-26T07:21:47.863Z,17.24
2023-08-26T07:22:47.824Z,17.05
2023-08-26T07:23:47.832Z,16.67
2023-08-26T07:24:47.815Z,16.65
2023-08-26T07:25:47.791Z,16.55
2023-08-26T07:26:47.777Z,16.42
2023-08-26T07:27:47.767Z,16.18
2023-08-26T07:28:47.756Z,15.84
2023-08-26T07:29:47.758Z,15.92
2023-08-26T07:30:47.752Z,16.47
2023-08-26T07:31:47.791Z,17.18
2023-08-26T07:32:47.790Z,17.20
2023-08-26T07:33:47.719Z,16.96
2023-08-26T07:34:47.699Z,16.80
2023-08-26T07:35:47.687Z,16.69
2023-08-26T07:36:47.690Z,16.81
2023-08-26T07:37:47.708Z,17.12
2023-08-26T07:38:47.642Z,17.27
2023-08-26T07:39:47.638Z,16.78
2023-08-26T07:40:47.649Z,16.45
2023-08-26T07:41:47.615Z,16.51
2023-08-26T07:42:47.621Z,16.66
2023-08-26T07:43:47.589Z,16.70
2023-08-26T07:44:47.580Z,16.70
2023-08-26T07:46:55.810Z,16.78
2023-08-26T07:48:47.623Z,16.62
2023-08-26T07:49:47.530Z,17.30
2023-08-26T07:50:47.510Z,17.42
2023-08-26T07:51:47.526Z,17.80
2023-08-26T07:52:47.487Z,18.02
2023-08-26T07:53:47.501Z,18.25
2023-08-26T07:54:47.470Z,18.39
2023-08-26T07:55:47.486Z,18.36
2023-08-26T07:56:47.462Z,18.49
2023-08-26T07:57:47.451Z,18.39
2023-08-26T07:58:47.440Z,18.20
2023-08-26T07:59:47.414Z,18.49
2023-08-26T08:00:47.466Z,18.26
2023-08-26T08:01:47.392Z,18.50
2023-08-26T08:02:47.456Z,18.84
2023-08-26T08:03:47.421Z,18.93
2023-08-26T08:04:47.367Z,19.17
2023-08-26T08:05:47.375Z,18.59
2023-08-26T08:06:47.351Z,18.07
2023-08-26T08:07:47.322Z,17.86
2023-08-26T08:08:47.336Z,17.79
2023-08-26T08:09:47.341Z,17.83
2023-08-26T08:10:47.301Z,17.73
2023-08-26T08:11:47.298Z,17.62
2023-08-26T08:12:47.272Z,17.45
2023-08-26T08:13:47.255Z,17.22
2023-08-26T08:14:47.253Z,17.07
2023-08-26T08:15:47.291Z,16.90
2023-08-26T08:16:47.224Z,17.10
2023-08-26T08:17:47.259Z,17.12
2023-08-26T08:18:47.210Z,17.21
2023-08-26T08:19:47.195Z,17.71
2023-08-26T08:20:47.208Z,17.71
2023-08-26T08:21:47.201Z,17.79
2023-08-26T08:22:47.159Z,17.92
2023-08-26T08:23:47.141Z,17.94
2023-08-26T08:24:47.146Z,18.14
2023-08-26T08:25:47.164Z,18.26
2023-08-26T08:26:47.118Z,18.13
2023-08-26T08:27:47.140Z,18.14
2023-08-26T08:28:47.092Z,18.05
2023-08-26T08:29:47.081Z,18.10
2023-08-26T08:30:47.387Z,18.07
2023-08-26T08:31:47.066Z,18.02
2023-08-26T08:32:47.085Z,18.42
2023-08-26T08:33:47.037Z,18.26
2023-08-26T08:34:47.037Z,18.65
2023-08-26T08:35:47.017Z,19.15
2023-08-26T08:36:47.010Z,19.46
2023-08-26T08:37:47.029Z,19.94
2023-08-26T08:38:46.984Z,20.13
2023-08-26T08:39:47.007Z,20.27
2023-08-26T08:40:46.957Z,20.37
2023-08-26T08:41:46.976Z,20.71
2023-08-26T08:42:46.942Z,20.79
2023-08-26T08:43:46.942Z,20.88
2023-08-26T08:44:46.917Z,21.08
2023-08-26T08:45:46.907Z,21.27
2023-08-26T08:46:46.996Z,21.33
2023-08-26T08:47:46.920Z,20.79
2023-08-26T08:48:46.886Z,20.90
2023-08-26T08:49:46.858Z,20.78
2023-08-26T08:50:46.851Z,20.63
2023-08-26T08:51:46.845Z,20.66
2023-08-26T08:52:46.854Z,20.64
2023-08-26T08:53:46.816Z,20.93
2023-08-26T08:54:46.811Z,20.53
2023-08-26T08:55:46.815Z,20.57
2023-08-26T08:56:46.797Z,20.38
2023-08-26T08:57:46.797Z,20.33
2023-08-26T08:58:46.799Z,20.56
2023-08-26T08:59:46.759Z,21.15
2023-08-26T09:00:46.787Z,21.30
2023-08-26T09:01:46.734Z,21.43
2023-08-26T09:02:46.796Z,21.68
2023-08-26T09:03:46.712Z,21.52
2023-08-26T09:04:46.710Z,21.38
2023-08-26T09:05:46.687Z,21.56
2023-08-26T09:06:46.670Z,21.74
2023-08-26T09:07:46.668Z,21.99
2023-08-26T09:08:46.660Z,21.99
2023-08-26T09:10:00.110Z,21.81
2023-08-26T09:10:47.649Z,21.34
2023-08-26T09:11:46.634Z,20.98
2023-08-26T09:12:46.604Z,21.21
2023-08-26T09:13:46.716Z,20.93
2023-08-26T09:14:46.581Z,21.21
2023-08-26T09:15:46.594Z,21.24
2023-08-26T09:16:46.574Z,21.43
2023-08-26T09:17:46.598Z,21.63
2023-08-26T09:18:46.542Z,21.70
2023-08-26T09:19:46.544Z,21.37
2023-08-26T09:20:46.522Z,20.94
2023-08-26T09:21:46.513Z,20.33
2023-08-26T09:22:46.496Z,20.33
2023-08-26T09:23:46.505Z,20.08
2023-08-26T09:24:46.499Z,20.07
2023-08-26T09:25:46.991Z,20.16
2023-08-26T09:26:46.453Z,20.58
2023-08-26T09:27:46.443Z,20.68
2023-08-26T09:28:46.427Z,20.93
2023-08-26T09:29:46.447Z,20.93
2023-08-26T09:30:46.447Z,21.21
2023-08-26T09:31:46.397Z,21.37
2023-08-26T09:32:46.452Z,21.58
2023-08-26T09:33:46.373Z,21.86
2023-08-26T09:34:46.358Z,22.09
2023-08-26T09:36:46.338Z,22.26
2023-08-26T09:37:46.341Z,22.11
2023-08-26T09:38:46.333Z,21.86
2023-08-26T09:39:46.326Z,21.93
2023-08-26T09:40:46.299Z,22.15
2023-08-26T09:41:46.396Z,22.39
2023-08-26T09:42:46.277Z,22.52
2023-08-26T09:43:46.266Z,22.69
2023-08-26T09:44:46.251Z,22.85
2023-08-26T09:45:46.296Z,22.61
2023-08-26T09:46:46.336Z,22.94
2023-08-26T09:47:46.243Z,23.12
2023-08-26T09:48:46.211Z,23.03
2023-08-26T09:49:46.200Z,23.19
2023-08-26T09:50:46.209Z,23.18
2023-08-26T09:51:46.185Z,22.96
2023-08-26T09:52:46.176Z,23.22
2023-08-26T09:53:46.173Z,23.00
2023-08-26T09:54:46.158Z,23.09
2023-08-26T09:55:46.143Z,23.12
2023-08-26T09:56:46.132Z,23.22
2023-08-26T09:57:46.135Z,23.16
2023-08-26T09:58:46.102Z,23.38
2023-08-26T09:59:46.100Z,23.41
2023-08-26T10:00:46.099Z,22.79
2023-08-26T10:01:46.155Z,22.63
2023-08-26T10:02:46.125Z,22.45
2023-08-26T10:03:46.130Z,22.12
2023-08-26T10:04:46.043Z,21.89
2023-08-26T10:05:46.042Z,21.79
2023-08-26T10:06:46.049Z,21.75
2023-08-26T10:07:46.020Z,21.49
2023-08-26T10:08:45.999Z,21.52
2023-08-26T10:09:45.994Z,21.53
2023-08-26T10:10:45.977Z,21.33
2023-08-26T10:11:45.967Z,21.26
2023-08-26T10:12:45.970Z,21.79
2023-08-26T10:13:45.959Z,22.15
2023-08-26T10:14:45.931Z,22.17
2023-08-26T10:15:45.943Z,22.74
2023-08-26T10:16:46.002Z,22.82
2023-08-26T10:17:46.018Z,22.26
2023-08-26T10:18:45.907Z,22.11
2023-08-26T10:19:45.884Z,21.93
2023-08-26T10:20:45.869Z,21.77
2023-08-26T10:21:46.748Z,21.91
2023-08-26T10:22:45.854Z,22.05
2023-08-26T10:23:45.848Z,22.41
2023-08-26T10:24:45.862Z,22.17
2023-08-26T10:25:45.817Z,22.26
2023-08-26T10:26:45.817Z,22.27
2023-08-26T10:27:45.793Z,22.67
2023-08-26T10:28:45.799Z,22.61
2023-08-26T10:29:45.778Z,22.59
2023-08-26T10:30:45.760Z,22.84
2023-08-26T10:31:45.795Z,22.82
2023-08-26T10:32:45.992Z,22.82
2023-08-26T10:33:45.765Z,22.89
2023-08-26T10:34:45.718Z,22.97
2023-08-26T10:35:45.744Z,23.26
2023-08-26T10:36:45.697Z,23.60
2023-08-26T10:37:45.685Z,23.78
2023-08-26T10:38:45.675Z,23.84
2023-08-26T10:39:45.691Z,23.99
2023-08-26T10:40:45.656Z,23.68
2023-08-26T10:41:45.641Z,23.60
2023-08-26T10:42:45.629Z,23.79
2023-08-26T10:43:45.615Z,23.75
2023-08-26T10:44:45.619Z,24.12
2023-08-26T10:45:45.659Z,24.53
2023-08-26T10:46:45.584Z,24.64
2023-08-26T10:47:45.599Z,24.77
2023-08-26T10:48:45.564Z,24.68
2023-08-26T10:49:45.620Z,24.42
2023-08-26T10:50:45.535Z,24.44
2023-08-26T10:51:45.539Z,24.77
2023-08-26T10:52:45.520Z,25.12
2023-08-26T10:53:45.512Z,25.04
2023-08-26T10:54:45.526Z,24.60
2023-08-26T10:55:45.499Z,24.36
2023-08-26T10:56:45.476Z,24.26
2023-08-26T10:57:45.462Z,24.05
2023-08-26T10:58:45.454Z,24.44
2023-08-26T10:59:45.441Z,24.66
2023-08-26T11:00:45.445Z,24.66
2023-08-26T11:01:45.453Z,24.75
2023-08-26T11:02:45.491Z,24.93
2023-08-26T11:03:45.461Z,24.77
2023-08-26T11:04:45.387Z,24.29
2023-08-26T11:05:45.420Z,23.94
2023-08-26T11:06:45.362Z,23.94
2023-08-26T11:07:45.347Z,24.12
2023-08-26T11:08:45.343Z,23.97
2023-08-26T11:09:45.359Z,24.29
2023-08-26T11:10:45.315Z,24.45
2023-08-26T11:11:45.324Z,24.77
2023-08-26T11:12:45.309Z,25.38
2023-08-26T11:13:45.282Z,25.74
2023-08-26T11:14:45.270Z,25.96
2023-08-26T11:15:45.279Z,26.20
2023-08-26T11:16:45.268Z,26.13
2023-08-26T11:17:51.557Z,26.13
2023-08-26T11:18:46.230Z,26.09
2023-08-26T11:19:45.214Z,26.31
2023-08-26T11:20:45.222Z,26.42
2023-08-26T11:21:45.233Z,26.28
2023-08-26T11:22:45.184Z,26.13
2023-08-26T11:23:45.207Z,26.31
2023-08-26T11:24:45.168Z,26.42
2023-08-26T11:25:45.155Z,26.57
2023-08-26T11:26:45.158Z,26.79
2023-08-26T11:27:45.137Z,27.02
2023-08-26T11:28:45.140Z,27.20
2023-08-26T11:29:45.107Z,27.05
2023-08-26T11:30:45.119Z,26.94
2023-08-26T11:31:45.189Z,27.05
2023-08-26T11:32:45.125Z,26.94
2023-08-26T11:33:45.078Z,27.05
2023-08-26T11:34:45.072Z,26.97
2023-08-26T11:35:51.967Z,27.21
2023-08-26T11:36:46.035Z,27.39
2023-08-26T11:37:45.052Z,27.63
2023-08-26T11:38:45.010Z,27.90
2023-08-26T11:39:45.007Z,27.74
2023-08-26T11:40:45.002Z,27.59
2023-08-26T11:41:44.980Z,27.39
2023-08-26T11:42:44.977Z,27.46
2023-08-26T11:43:44.959Z,27.06
2023-08-26T11:44:44.998Z,26.76
2023-08-26T11:45:44.962Z,26.41
2023-08-26T11:46:44.920Z,26.29
2023-08-26T11:47:44.953Z,26.28
2023-08-26T11:48:44.901Z,26.35
2023-08-26T11:49:44.892Z,26.44
2023-08-26T11:50:44.890Z,26.34
2023-08-26T11:51:44.885Z,26.32
2023-08-26T11:52:44.876Z,26.49
2023-08-26T11:53:44.875Z,26.88
2023-08-26T11:54:44.838Z,27.23
2023-08-26T11:55:44.825Z,27.31
2023-08-26T11:56:44.838Z,27.06
2023-08-26T11:57:44.804Z,27.13
2023-08-26T11:58:44.794Z,27.25
2023-08-26T11:59:44.837Z,27.62
2023-08-26T12:00:44.777Z,27.52
2023-08-26T12:01:44.825Z,27.66
2023-08-26T12:02:44.765Z,27.78
2023-08-26T12:03:46.031Z,27.66
2023-08-26T12:04:44.730Z,27.12
2023-08-26T12:05:44.717Z,26.86
2023-08-26T12:06:44.708Z,26.60
2023-08-26T12:07:44.705Z,26.31
2023-08-26T12:08:44.691Z,25.97
2023-08-26T12:09:44.722Z,25.96
2023-08-26T12:10:44.694Z,25.85
2023-08-26T12:11:44.655Z,25.83
2023-08-26T12:12:44.663Z,25.86
2023-08-26T12:13:44.652Z,25.83
2023-08-26T12:14:44.621Z,25.78
2023-08-26T12:15:44.617Z,25.56
2023-08-26T12:16:44.614Z,25.74
2023-08-26T12:17:44.641Z,25.54
2023-08-26T12:18:44.579Z,25.57
2023-08-26T12:19:44.574Z,25.42
2023-08-26T12:20:44.578Z,25.38
2023-08-26T12:21:44.547Z,25.19
2023-08-26T12:22:46.126Z,25.26
2023-08-26T12:23:44.531Z,25.31
2023-08-26T12:24:44.519Z,25.30
2023-08-26T12:25:44.620Z,25.51
2023-08-26T12:26:44.500Z,25.51
2023-08-26T12:27:44.484Z,25.53
2023-08-26T12:28:44.476Z,25.46
2023-08-26T12:29:44.471Z,25.35
2023-08-26T12:30:44.466Z,25.34
2023-08-26T12:31:44.578Z,25.29
2023-08-26T12:32:44.534Z,25.02
2023-08-26T12:33:58.228Z,25.12
2023-08-26T12:34:45.413Z,24.98
2023-08-26T12:35:44.429Z,24.87
2023-08-26T12:36:44.385Z,24.77
2023-08-26T12:37:44.373Z,24.80
2023-08-26T12:38:44.365Z,24.75
2023-08-26T12:39:44.361Z,24.53
2023-08-26T12:40:44.349Z,24.49
2023-08-26T12:41:46.120Z,24.37
2023-08-26T12:42:44.318Z,24.29
2023-08-26T12:43:44.310Z,24.26
2023-08-26T12:44:44.295Z,24.15
2023-08-26T12:45:44.507Z,24.19
2023-08-26T12:46:44.280Z,24.14
2023-08-26T12:47:44.451Z,24.12
2023-08-26T12:49:45.275Z,24.06
2023-08-26T12:50:44.234Z,23.96
2023-08-26T12:51:44.238Z,23.93
2023-08-26T12:52:44.230Z,23.86
2023-08-26T12:53:44.203Z,23.89
2023-08-26T12:54:44.196Z,23.89
2023-08-26T12:55:44.188Z,23.81
2023-08-26T12:56:44.184Z,23.81